• Join FlightAware (Why Join?)
  • Login
  • US Flag 
05:33AM EDT


 

Airport Tracker/Info


-or-


 

Live Flight TrackerFlight Track Log ✈ OPT452 ✈ 19-Apr-2013 ✈ KPIT - KSSI

Flight Track Log - Related Links

Times and Time Zones

All times are in EDT time to prevent confusion due to time zone crossing. See the OPT452 flight status page for this flight to view local times or setup timezone preferences in your user account.

Time Position Orientation Groundspeed Altitude Reporting Facility
EDT Latitude Longitude Course Direction KTS MPH feet Rate Location/Type
07:43AM 40.4775 -80.2033 137° Southeast 147 169 2,300  Level FAA TRACON SMA TRACON (SMA)
07:43AM 40.4647 -80.1875 137° Southeast 170 196 3,400 2,820 Climbing FAA TRACON SMA TRACON (SMA)
07:43AM 40.4517 -80.1833 166° South 151 174 4,200 2,100 Climbing FAA TRACON SMA TRACON (SMA)
07:44AM 40.4383 -80.1858 188° South 155 178 4,800 1,200 Climbing FAA TRACON SMA TRACON (SMA)
07:44AM 40.4253 -80.1878 186° South 152 175 5,000 240 Climbing FAA TRACON SMA TRACON (SMA)
07:44AM 40.4072 -80.1894 184° South 167 192 5,000  Level FAA TRACON SMA TRACON (SMA)
07:45AM 40.3914 -80.1906 183° South 182 209 5,000 1,020 Level FAA TRACON SMA TRACON (SMA)
07:45AM 40.3706 -80.1919 183° South 193 222 5,700 2,100 Climbing FAA TRACON SMA TRACON (SMA)
07:45AM 40.3528 -80.1931 183° South 205 236 6,400 2,280 Climbing FAA TRACON SMA TRACON (SMA)
07:46AM 40.3336 -80.1947 184° South 218 251 7,200 2,580 Climbing FAA TRACON SMA TRACON (SMA)
07:46AM 40.3086 -80.1967 183° South 230 265 8,200 3,000 Climbing FAA TRACON SMA TRACON (SMA)
07:46AM 40.2878 -80.1983 183° South 239 275 9,200 3,000 Climbing FAA TRACON SMA TRACON (SMA)
07:47AM 40.2667 -80.2003 184° South 244 281 10,200 3,300 Climbing FAA TRACON SMA TRACON (SMA)
07:47AM 40.2453 -80.2019 183° South 247 284 11,400 3,660 Climbing FAA TRACON SMA TRACON (SMA)
07:47AM 40.2189 -80.2036 183° South 246 283 12,600 3,060 Climbing FAA TRACON SMA TRACON (SMA)
07:48AM 40.1978 -80.2053 183° South 247 284 13,500 2,700 Climbing FAA TRACON SMA TRACON (SMA)
07:48AM 40.1758 -80.2069 183° South 251 289 14,400 3,420 Climbing FAA TRACON SMA TRACON (SMA)
07:48AM 40.1486 -80.2094 184° South 254 292 15,800 3,420 Climbing FAA TRACON SMA TRACON (SMA)
07:49AM 40.1269 -80.2108 183° South 251 289 16,700 2,460 Climbing FAA TRACON SMA TRACON (SMA)
07:49AM 40.1058 -80.2122 183° South 250 288 17,400 2,460 Climbing FAA TRACON SMA TRACON (SMA)
07:49AM 40.0783 -80.2139 183° South 253 291 18,400 2,220 Climbing FAA TRACON SMA TRACON (SMA)
07:50AM 40.0556 -80.2153 183° South 260 299 18,900 1,320 Climbing FAA TRACON SMA TRACON (SMA)
07:50AM 40.0325 -80.2158 181° South 267 307 19,300 1,920 Climbing FAA TRACON SMA TRACON (SMA)
07:50AM 40.0011 -80.2194 185° South 280 322 20,200 2,100 Climbing FAA TRACON SMA TRACON (SMA)
07:51AM 39.9761 -80.2211 183° South 287 330 20,700 1,440 Climbing FAA TRACON SMA TRACON (SMA)
07:51AM 39.9519 -80.2189 176° South 290 334 21,200 1,800 Climbing FAA TRACON SMA TRACON (SMA)
07:51AM 39.9183 -80.2253 188° South 298 343 21,900 1,680 Climbing FAA TRACON SMA TRACON (SMA)
07:52AM 39.8969 -80.2250 179° South 300 345 22,300 1,440 Climbing FAA TRACON SMA TRACON (SMA)
07:52AM 39.8661 -80.2289 186° South 305 351 22,900 1,920 Climbing FAA TRACON SMA TRACON (SMA)
07:52AM 39.8331 -80.2319 184° South 308 354 23,600 1,620 Climbing FAA TRACON SMA TRACON (SMA)
07:53AM 39.8106 -80.2261 169° South 309 356 24,000 1,500 Climbing FAA TRACON SMA TRACON (SMA)
07:53AM 39.7794 -80.2361 194° South 311 358 24,600 1,620 Climbing FAA TRACON SMA TRACON (SMA)
07:53AM 39.7456 -80.2389 184° South 313 360 25,100 1,260 Climbing FAA TRACON SMA TRACON (SMA)
07:54AM 39.7208 -80.2364 176° South 315 362 25,500 1,380 Climbing FAA TRACON SMA TRACON (SMA)
07:54AM 39.6908 -80.2428 189° South 319 367 26,000 720 Climbing FAA TRACON SMA TRACON (SMA)
07:54AM 39.6558 -80.2453 183° South 325 374 26,000  Level FAA TRACON SMA TRACON (SMA)
07:55AM 39.6264 -80.2475 183° South 336 387 26,000  Level FAA TRACON SMA TRACON (SMA)
07:55AM 39.5958 -80.2500 184° South 349 402 26,000  Level FAA TRACON SMA TRACON (SMA)
07:55AM 39.5567 -80.2528 183° South 361 415 26,000  Level FAA TRACON SMA TRACON (SMA)
07:56AM 39.5503 -80.2467 144° Southeast 361 415 26,000  Level FAA TRACON SMA TRACON (SMA)
07:56AM 39.5111 -80.2506 184° South 369 425 26,000 180 Level Washington Center
07:57AM 39.4044 -80.2600 184° South 390 449 26,300 1,500 Climbing Washington Center
07:58AM 39.3064 -80.2644 182° South 382 440 29,000 2,100 Climbing Washington Center
07:59AM 39.2053 -80.2872 190° South 360 414 30,600 1,320 Climbing Washington Center
08:00AM 39.1189 -80.3139 193° South 336 387 31,700 1,140 Climbing Washington Center
08:01AM 39.0406 -80.3383 194° South 326 375 32,900 1,140 Climbing Washington Center
08:02AM 38.9542 -80.3647 193° South 320 368 34,000 540 Climbing Washington Center
08:03AM 38.8614 -80.3906 192° South 327 376 34,000  Level Washington Center
08:04AM 38.7558 -80.4211 193° South 338 389 34,000  Level Washington Center
08:05AM 38.6567 -80.4517 194° South 361 415 34,000  Level Washington Center
08:06AM 38.5575 -80.4797 192° South 366 421 34,000  Level Washington Center
08:07AM 38.4606 -80.5078 193° South 366 421 34,000  Level Washington Center
08:08AM 38.3717 -80.5336 193° South 366 421 34,000 360 Level Washington Center
08:09AM 38.2689 -80.5506 187° South 366 421 34,800 900 Climbing Washington Center
08:10AM 38.1703 -80.5625 185° South 366 421 35,800 960 Climbing Washington Center
08:11AM 38.0694 -80.5797 188° South 366 421 36,800 900 Climbing Washington Center
08:12AM 37.9603 -80.5961 187° South 366 421 37,700 780 Climbing Washington Center
08:13AM 37.8597 -80.6106 186° South 366 421 38,400 600 Climbing Washington Center
08:14AM 37.7611 -80.6222 185° South 371 427 39,000 480 Climbing Washington Center
08:16AM 37.5628 -80.6489 186° South 373 429 40,000 300 Climbing Atlanta Center
08:17AM 37.4694 -80.6633 187° South 373 429 40,000  Level Atlanta Center
08:18AM 37.3656 -80.6783 187° South 373 429 40,000  Level Atlanta Center
08:19AM 37.2617 -80.6906 185° South 379 436 40,000  Level Atlanta Center
08:20AM 37.1536 -80.7056 186° South 372 428 40,000  Level Atlanta Center
08:21AM 37.0539 -80.7203 187° South 367 422 40,000  Level Atlanta Center
08:22AM 36.9561 -80.7294 184° South 367 422 40,000  Level Atlanta Center
08:23AM 36.8564 -80.7389 184° South 367 422 40,000  Level Atlanta Center
08:24AM 36.7650 -80.7506 186° South 367 422 40,000  Level Atlanta Center
08:25AM 36.6547 -80.7578 183° South 367 422 40,000  Level Atlanta Center
08:26AM 36.5528 -80.7694 185° South 367 422 40,000  Level Atlanta Center
08:27AM 36.4467 -80.7817 185° South 372 428 40,000  Level Atlanta Center
08:28AM 36.3450 -80.7936 185° South 372 428 40,000  Level Atlanta Center
08:29AM 36.2431 -80.8053 185° South 372 428 40,000  Level Atlanta Center
08:30AM 36.1369 -80.8147 184° South 377 434 40,000  Level Atlanta Center
08:31AM 36.0331 -80.8267 185° South 377 434 40,000  Level Atlanta Center
08:32AM 35.9394 -80.8381 186° South 377 434 40,000  Level Atlanta Center
08:33AM 35.8375 -80.8472 184° South 377 434 40,000 -60 Level Atlanta Center
08:34AM 35.7333 -80.8564 184° South 377 434 39,900 -420 Descending Atlanta Center
08:35AM 35.6272 -80.8656 184° South 382 440 39,200 -840 Descending Atlanta Center
08:36AM 35.5044 -80.8831 187° South 392 451 38,300 -960 Descending Atlanta Center
08:37AM 35.3942 -80.8950 185° South 400 460 37,300 -1,020 Descending Atlanta Center
08:38AM 35.2861 -80.9067 185° South 400 460 36,300 -660 Descending Atlanta Center
08:39AM 35.1800 -80.9208 186° South 394 453 36,000 -120 Descending Atlanta Center
08:40AM 35.0186 -80.9383 185° South 396 456 36,000  Level Jacksonville Center
08:41AM 34.9125 -80.9483 184° South 391 450 36,000  Level Jacksonville Center
08:42AM 34.8064 -80.9633 187° South 383 441 36,000  Level Jacksonville Center
08:43AM 34.7022 -80.9733 185° South 383 441 36,000  Level Jacksonville Center
08:44AM 34.5939 -80.9883 187° South 389 448 36,000  Level Jacksonville Center
08:45AM 34.4856 -80.9933 182° South 389 448 36,000  Level Jacksonville Center
08:46AM 34.3669 -81.0108 187° South 389 448 36,000  Level Jacksonville Center
08:47AM 34.2731 -81.0181 184° South 397 457 36,000 -120 Level Jacksonville Center
08:48AM 34.1522 -81.0306 185° South 385 443 35,800 -600 Descending Jacksonville Center
08:49AM 34.0400 -81.0456 186° South 390 449 34,900 -900 Descending Jacksonville Center
08:50AM 33.9294 -81.0578 185° South 402 463 34,000 -960 Descending Jacksonville Center
08:51AM 33.8150 -81.0728 186° South 407 468 33,000 -960 Descending Jacksonville Center
08:52AM 33.7150 -81.0900 188° South 407 468 32,100 -900 Descending Jacksonville Center
08:53AM 33.5983 -81.1022 185° South 407 468 31,200 -960 Descending Jacksonville Center
08:54AM 33.4858 -81.1169 186° South 407 468 30,200 -1,020 Descending Jacksonville Center
08:55AM 33.3728 -81.0942 170° South 407 468 29,200 -1,380 Descending Jacksonville Center
08:56AM 33.2533 -81.0644 168° South 419 482 27,500 -1,680 Descending Jacksonville Center
08:57AM 33.1319 -81.0322 167° South 432 497 25,900 -1,500 Descending Jacksonville Center
08:58AM 33.0125 -81.0025 168° South 437 503 24,500 -960 Descending Jacksonville Center
08:59AM 32.8972 -80.9728 168° South 437 503 24,000 -300 Descending Jacksonville Center
09:00AM 32.7822 -80.9578 174° South 430 495 24,000  Level Jacksonville Center
09:01AM 32.6742 -80.9872 193° South 406 467 24,000 -60 Level Jacksonville Center
09:02AM 32.5681 -81.0142 192° South 406 467 23,900 -540 Descending Jacksonville Center
09:03AM 32.4600 -81.0436 193° South 406 467 23,000 -1,500 Descending Jacksonville Center
09:04AM 32.3475 -81.0728 192° South 411 473 21,000 -2,100 Descending Jacksonville Center
09:05AM 32.2436 -81.1044 194° South 404 465 18,800 -2,400 Descending Jacksonville Center
09:06AM 32.1333 -81.1311 192° South 371 427 16,300 -2,340 Descending Jacksonville Center
09:07AM 32.0378 -81.1550 192° South 366 421 14,200 -1,800 Descending Jacksonville Center
09:08AM 31.9503 -81.1811 194° South 346 398 12,800 -1,500 Descending Jacksonville Center
09:09AM 31.8733 -81.2022 193° South 328 377 11,300 -1,740 Descending Jacksonville Center
09:10AM 31.7903 -81.2231 192° South 290 334 9,400 -1,800 Descending Jacksonville Center
09:11AM 31.7172 -81.2417 192° South 274 315 7,800 -1,500 Descending Jacksonville Center
09:12AM 31.6550 -81.2597 194° South 264 304 6,400 -1,260 Descending Jacksonville Center
09:13AM 31.5800 -81.2781 192° South 256 295 5,300 -1,020 Descending Jacksonville Center
09:14AM 31.5156 -81.2964 194° South 256 295 4,400 -660 Descending Jacksonville Center
09:15AM 31.4614 -81.3094 192° South 237 273 4,000 -300 Descending Jacksonville Center
09:16AM 31.4011 -81.3250 192° South 210 242 3,800 -600 Descending Jacksonville Center
09:17AM 31.3572 -81.3331 189° South 210 242 2,800 10,080 Descending Jacksonville Center
09:18AM 31.2928 -81.3489 192° South 210 242 24,000 10,560 Climbing Jacksonville Center
09:19AM 31.2344 -81.3619 191° South 210 242 24,000  Level Jacksonville Center
09:21AM 31.1500 -81.3833 190° South  Level FlightAware Approximate
09:28AM 31.1520 -81.3911 190° South  Level Estimated
09:29AM 31.1500 -81.3833 190° South  Level FlightAware Approximate
09:30AM 31.1520 -81.3911 190° South  Level Estimated
09:31AM 31.1500 -81.3833 190° South  Level FlightAware Approximate
09:32AM 31.1520 -81.3911 190° South  Level Estimated
09:33AM 31.1500 -81.3833 190° South  Level FlightAware Approximate
09:34AM 31.1520 -81.3911 190° South  Level Estimated
09:35AM 31.1500 -81.3833 190° South  Level FlightAware Approximate
09:36AM 31.1520 -81.3911 190° South  Level Estimated
09:37AM 31.1500 -81.3833 190° South  Level FlightAware Approximate